메인 페이지
METAR-TAF:

METAR-TAF

공항 :

Fort Smith, 아칸소, 미국

위도: 35-20-01N, 경도: 094-21-54W, 고도: 142m

현재 날씨관측

예보는 30분 전, 06:53시(UTC)에 발표되었습니다.
3kt
온도 18°C
습도 94%
기압 1016 hPa
시정: 16.1km
고도 1500ft 상공 흐림

METAR: KFSM 230653Z AUTO 10003KT 10SM OVC015 18/17 A3001 RMK AO2 SLP161 T01830172

시각: 02:23 (07:23 UTC)

예보

예보는 2 시간 3분 전, 05:20시(UTC)에 발표되었습니다.
예보 대상 시간: 23일 06시부터 24일 06시까지 (UTC)
9kt
시정: 10km
고도 900ft 상공 구름 조금
고도 1800ft 상공 구름 많음
고도 2900ft 상공 흐림
시계 내 소나기
23일 0900시부터 (UTC)
동북동7kt
시정: 6.4km
고도 700ft 상공 흐림
박무, 시계 내 소나기
23일 1500시부터 (UTC)
동북동5kt
시정: 10km
고도 1500ft 상공 흐림
확률 30%
23일 15시부터 23일 21시까지 (UTC)
시정: 3.2km
24일 0000시부터 (UTC)
동북동5kt
시정: 10km
고도 1500ft 상공 흐림
24일 0300시부터 (UTC)
4kt
시정: 6.4km
고도 700ft 상공 흐림
박무

TAF: KFSM 230520Z 2306/2406 09009KT P6SM VCSH FEW009 BKN018 OVC029 FM230900 06007KT 4SM BR VCSH OVC007 FM231500 06005KT P6SM OVC015 PROB30 2315/2321 2SM RA FM240000 07005KT P6SM OVC015 FM240300 08004KT 4SM BR OVC007

4,000개 이상의 공항 관측 자료 및 예보 (METAR 및 TAF 보고).

지도상에서 검색 가능한 기상관측소가 노란 점과 빨간 점으로 표시되어 있습니다.

기상관측소 명을 보려면 표시 위로 마우스를 이동하세요.

날씨 관측과 예보를 보려면 클릭하세요.

지도 변경 : 확대하려면 엑스 표시가 있는 녹색 버튼, 축소하려면 빼기 표시가 있는 녹색 버튼, 다음 페이지의 지도를 보려면 녹색 화살표를 클릭하세요.


METAR-TAF: